sensor_id;sensor_type;location;lat;lon;timestamp;pressure;altitude;pressure_sealevel;temperature;humidity
62800;BME280;48842;51.046;13.796;2022-11-21T00:00:11;99311.38;;;3.07;61.66
62800;BME280;48842;51.046;13.796;2022-11-21T00:02:37;99297.63;;;3.08;61.67
62800;BME280;48842;51.046;13.796;2022-11-21T00:05:02;99296.78;;;3.11;61.70
62800;BME280;48842;51.046;13.796;2022-11-21T00:07:27;99286.44;;;3.11;61.62
62800;BME280;48842;51.046;13.796;2022-11-21T00:09:52;99282.16;;;3.13;61.60
62800;BME280;48842;51.046;13.796;2022-11-21T00:12:18;99264.91;;;3.13;61.87
62800;BME280;48842;51.046;13.796;2022-11-21T00:14:43;99272.72;;;3.15;61.84
62800;BME280;48842;51.046;13.796;2022-11-21T00:17:08;99258.94;;;3.16;61.86
62800;BME280;48842;51.046;13.796;2022-11-21T00:19:33;99250.34;;;3.17;61.88
62800;BME280;48842;51.046;13.796;2022-11-21T00:21:59;99253.81;;;3.19;61.85
62800;BME280;48842;51.046;13.796;2022-11-21T00:24:24;99243.50;;;3.22;61.80
62800;BME280;48842;51.046;13.796;2022-11-21T00:26:49;99233.16;;;3.24;61.90
62800;BME280;48842;51.046;13.796;2022-11-21T00:29:15;99232.34;;;3.25;61.89
62800;BME280;48842;51.046;13.796;2022-11-21T00:31:40;99222.84;;;3.25;61.81
62800;BME280;48842;51.046;13.796;2022-11-21T00:34:05;99217.66;;;3.25;61.86
62800;BME280;48842;51.046;13.796;2022-11-21T00:36:30;99209.94;;;3.28;61.74
62800;BME280;48842;51.046;13.796;2022-11-21T00:38:56;99209.13;;;3.29;61.70
62800;BME280;48842;51.046;13.796;2022-11-21T00:41:21;99194.41;;;3.28;61.68
62800;BME280;48842;51.046;13.796;2022-11-21T00:43:46;99198.75;;;3.29;61.57
62800;BME280;48842;51.046;13.796;2022-11-21T00:46:11;99197.91;;;3.30;61.78
62800;BME280;48842;51.046;13.796;2022-11-21T00:48:37;99186.72;;;3.31;61.67
62800;BME280;48842;51.046;13.796;2022-11-21T00:51:02;99182.41;;;3.32;61.69
62800;BME280;48842;51.046;13.796;2022-11-21T00:53:28;99173.81;;;3.33;61.75
62800;BME280;48842;51.046;13.796;2022-11-21T00:55:53;99180.72;;;3.36;61.66
62800;BME280;48842;51.046;13.796;2022-11-21T00:58:18;99164.38;;;3.37;61.65
62800;BME280;48842;51.046;13.796;2022-11-21T01:00:44;99163.53;;;3.38;61.76
62800;BME280;48842;51.046;13.796;2022-11-21T01:03:09;99147.13;;;3.39;61.75
62800;BME280;48842;51.046;13.796;2022-11-21T01:05:34;99136.81;;;3.40;61.81
62800;BME280;48842;51.046;13.796;2022-11-21T01:07:59;99137.69;;;3.42;61.77
62800;BME280;48842;51.046;13.796;2022-11-21T01:10:25;99130.81;;;3.44;61.75
62800;BME280;48842;51.046;13.796;2022-11-21T01:12:50;99120.47;;;3.46;61.88
62800;BME280;48842;51.046;13.796;2022-11-21T01:15:15;99119.63;;;3.47;61.88
62800;BME280;48842;51.046;13.796;2022-11-21T01:17:41;99113.63;;;3.49;62.04
62800;BME280;48842;51.046;13.796;2022-11-21T01:20:07;99100.72;;;3.51;61.89
62800;BME280;48842;51.046;13.796;2022-11-21T01:22:32;99098.13;;;3.53;62.14
62800;BME280;48842;51.046;13.796;2022-11-21T01:24:57;99100.75;;;3.54;62.18
62800;BME280;48842;51.046;13.796;2022-11-21T01:27:22;99083.50;;;3.56;62.17
62800;BME280;48842;51.046;13.796;2022-11-21T01:29:48;99089.59;;;3.60;62.29
62800;BME280;48842;51.046;13.796;2022-11-21T01:32:13;99084.44;;;3.61;62.30
62800;BME280;48842;51.046;13.796;2022-11-21T01:34:38;99080.13;;;3.63;62.45
62800;BME280;48842;51.046;13.796;2022-11-21T01:37:03;99074.13;;;3.66;62.58
62800;BME280;48842;51.046;13.796;2022-11-21T01:39:29;99077.66;;;3.71;62.64
62800;BME280;48842;51.046;13.796;2022-11-21T01:41:54;99079.41;;;3.75;62.50
62800;BME280;48842;51.046;13.796;2022-11-21T01:44:22;99074.28;;;3.78;62.61
62800;BME280;48842;51.046;13.796;2022-11-21T01:46:48;99069.13;;;3.81;62.77
62800;BME280;48842;51.046;13.796;2022-11-21T01:49:19;99067.44;;;3.87;62.88
62800;BME280;48842;51.046;13.796;2022-11-21T01:51:52;99066.59;;;3.89;62.78
62800;BME280;48842;51.046;13.796;2022-11-21T01:54:56;99071.81;;;3.92;63.28
62800;BME280;48842;51.046;13.796;2022-11-21T01:57:26;99066.63;;;3.92;63.44
62800;BME280;48842;51.046;13.796;2022-11-21T02:00:00;99061.50;;;3.97;63.16
62800;BME280;48842;51.046;13.796;2022-11-21T02:02:29;99058.94;;;4.01;63.04
62800;BME280;48842;51.046;13.796;2022-11-21T02:04:58;99052.06;;;4.05;63.09
62800;BME280;48842;51.046;13.796;2022-11-21T02:07:25;99042.59;;;4.10;63.01
62800;BME280;48842;51.046;13.796;2022-11-21T02:09:58;99052.13;;;4.13;63.01
62800;BME280;48842;51.046;13.796;2022-11-21T02:12:34;99041.78;;;4.16;63.06
62800;BME280;48842;51.046;13.796;2022-11-21T02:15:02;99042.69;;;4.18;62.93
62800;BME280;48842;51.046;13.796;2022-11-21T02:17:28;99042.72;;;4.21;63.01
62800;BME280;48842;51.046;13.796;2022-11-21T02:19:56;99035.81;;;4.23;63.02
62800;BME280;48842;51.046;13.796;2022-11-21T02:22:40;99032.38;;;4.26;63.10
62800;BME280;48842;51.046;13.796;2022-11-21T02:25:25;99028.06;;;4.26;63.21
62800;BME280;48842;51.046;13.796;2022-11-21T02:27:56;99028.97;;;4.30;63.15
62800;BME280;48842;51.046;13.796;2022-11-21T02:30:22;99022.03;;;4.30;63.27
62800;BME280;48842;51.046;13.796;2022-11-21T02:32:48;99027.25;;;4.33;63.19
62800;BME280;48842;51.046;13.796;2022-11-21T02:35:16;99021.25;;;4.37;63.34
62800;BME280;48842;51.046;13.796;2022-11-21T02:37:43;99027.34;;;4.41;63.33
62800;BME280;48842;51.046;13.796;2022-11-21T02:40:25;99016.09;;;4.42;63.78
62800;BME280;48842;51.046;13.796;2022-11-21T02:45:41;99020.44;;;4.48;63.72
62800;BME280;48842;51.046;13.796;2022-11-21T02:48:07;99011.84;;;4.52;63.53
62800;BME280;48842;51.046;13.796;2022-11-21T02:50:34;99007.53;;;4.54;63.61
62800;BME280;48842;51.046;13.796;2022-11-21T02:53:00;99003.22;;;4.56;63.63
62800;BME280;48842;51.046;13.796;2022-11-21T02:55:26;99007.56;;;4.59;63.80
62800;BME280;48842;51.046;13.796;2022-11-21T02:57:52;98997.22;;;4.60;63.78
62800;BME280;48842;51.046;13.796;2022-11-21T03:00:18;98992.03;;;4.62;63.84
62800;BME280;48842;51.046;13.796;2022-11-21T03:02:43;98995.50;;;4.64;63.86
62800;BME280;48842;51.046;13.796;2022-11-21T03:05:13;98997.22;;;4.65;64.02
62800;BME280;48842;51.046;13.796;2022-11-21T03:07:39;98998.97;;;4.67;64.01
62800;BME280;48842;51.046;13.796;2022-11-21T03:10:05;98993.81;;;4.70;64.01
62800;BME280;48842;51.046;13.796;2022-11-21T03:12:30;98990.34;;;4.71;64.03
62800;BME280;48842;51.046;13.796;2022-11-21T03:14:56;98988.63;;;4.72;63.86
62800;BME280;48842;51.046;13.796;2022-11-21T03:17:21;98986.03;;;4.74;64.07
62800;BME280;48842;51.046;13.796;2022-11-21T03:19:46;98990.38;;;4.76;64.20
62800;BME280;48842;51.046;13.796;2022-11-21T03:22:13;98991.25;;;4.78;64.12
62800;BME280;48842;51.046;13.796;2022-11-21T03:24:38;98992.09;;;4.79;64.17
62800;BME280;48842;51.046;13.796;2022-11-21T03:27:04;98991.25;;;4.80;64.25
62800;BME280;48842;51.046;13.796;2022-11-21T03:29:29;98986.94;;;4.82;64.41
62800;BME280;48842;51.046;13.796;2022-11-21T03:31:54;98979.16;;;4.82;64.55
62800;BME280;48842;51.046;13.796;2022-11-21T03:34:20;98974.84;;;4.84;64.26
62800;BME280;48842;51.046;13.796;2022-11-21T03:36:45;98974.88;;;4.87;64.46
62800;BME280;48842;51.046;13.796;2022-11-21T03:39:10;98973.13;;;4.87;64.44
62800;BME280;48842;51.046;13.796;2022-11-21T03:41:36;98971.41;;;4.88;64.50
62800;BME280;48842;51.046;13.796;2022-11-21T03:44:06;98960.16;;;4.89;64.61
62800;BME280;48842;51.046;13.796;2022-11-21T03:46:34;98960.16;;;4.89;64.66
62800;BME280;48842;51.046;13.796;2022-11-21T03:49:00;98961.06;;;4.91;64.84
62800;BME280;48842;51.046;13.796;2022-11-21T03:51:25;98953.28;;;4.91;64.74
62800;BME280;48842;51.046;13.796;2022-11-21T03:53:51;98952.41;;;4.92;64.95
62800;BME280;48842;51.046;13.796;2022-11-21T03:56:16;98954.13;;;4.92;64.89
62800;BME280;48842;51.046;13.796;2022-11-21T03:58:42;98949.81;;;4.92;65.03
62800;BME280;48842;51.046;13.796;2022-11-21T04:01:08;98956.72;;;4.93;65.12
62800;BME280;48842;51.046;13.796;2022-11-21T04:03:33;98948.09;;;4.94;65.21
62800;BME280;48842;51.046;13.796;2022-11-21T04:05:59;98941.16;;;4.95;65.28
62800;BME280;48842;51.046;13.796;2022-11-21T04:08:25;98939.47;;;4.95;65.27
62800;BME280;48842;51.046;13.796;2022-11-21T04:10:52;98941.16;;;4.96;65.45
62800;BME280;48842;51.046;13.796;2022-11-21T04:13:18;98937.72;;;4.96;65.49
62800;BME280;48842;51.046;13.796;2022-11-21T04:15:44;98939.47;;;4.98;65.57
62800;BME280;48842;51.046;13.796;2022-11-21T04:18:10;98934.28;;;4.98;65.61
62800;BME280;48842;51.046;13.796;2022-11-21T04:20:35;98942.91;;;5.00;65.62
62800;BME280;48842;51.046;13.796;2022-11-21T04:23:01;98932.53;;;5.00;65.67
62800;BME280;48842;51.046;13.796;2022-11-21T04:25:26;98933.44;;;5.02;65.82
62800;BME280;48842;51.046;13.796;2022-11-21T04:27:55;98937.75;;;5.03;66.00
62800;BME280;48842;51.046;13.796;2022-11-21T04:30:21;98934.28;;;5.04;65.78
62800;BME280;48842;51.046;13.796;2022-11-21T04:32:46;98922.16;;;5.06;65.90
62800;BME280;48842;51.046;13.796;2022-11-21T04:35:13;98923.91;;;5.07;65.88
62800;BME280;48842;51.046;13.796;2022-11-21T04:37:39;98920.47;;;5.09;65.90
62800;BME280;48842;51.046;13.796;2022-11-21T04:40:04;98917.88;;;5.09;65.92
62800;BME280;48842;51.046;13.796;2022-11-21T04:42:30;98917.03;;;5.10;66.00
62800;BME280;48842;51.046;13.796;2022-11-21T04:44:55;98908.34;;;5.11;66.08
62800;BME280;48842;51.046;13.796;2022-11-21T04:47:20;98912.69;;;5.10;66.24
62800;BME280;48842;51.046;13.796;2022-11-21T04:49:45;98918.72;;;5.11;66.19
62800;BME280;48842;51.046;13.796;2022-11-21T04:52:11;98912.69;;;5.12;66.39
62800;BME280;48842;51.046;13.796;2022-11-21T04:54:36;98904.91;;;5.15;66.13
62800;BME280;48842;51.046;13.796;2022-11-21T04:57:02;98915.28;;;5.18;66.06
62800;BME280;48842;51.046;13.796;2022-11-21T04:59:27;98908.41;;;5.20;66.19
62800;BME280;48842;51.046;13.796;2022-11-21T05:01:52;98904.91;;;5.21;66.13
62800;BME280;48842;51.046;13.796;2022-11-21T05:04:18;98911.84;;;5.22;66.01
62800;BME280;48842;51.046;13.796;2022-11-21T05:06:43;98908.41;;;5.23;65.96
62800;BME280;48842;51.046;13.796;2022-11-21T05:09:08;98899.72;;;5.24;65.97
62800;BME280;48842;51.046;13.796;2022-11-21T05:11:34;98902.31;;;5.24;65.85
62800;BME280;48842;51.046;13.796;2022-11-21T05:14:18;98898.00;;;5.24;65.90
62800;BME280;48842;51.046;13.796;2022-11-21T05:16:43;98898.88;;;5.25;65.86
62800;BME280;48842;51.046;13.796;2022-11-21T05:19:08;98903.22;;;5.26;65.84
62800;BME280;48842;51.046;13.796;2022-11-21T05:21:34;98905.81;;;5.26;65.93
62800;BME280;48842;51.046;13.796;2022-11-21T05:24:00;98909.25;;;5.27;66.03
62800;BME280;48842;51.046;13.796;2022-11-21T05:26:25;98903.22;;;5.26;66.00
62800;BME280;48842;51.046;13.796;2022-11-21T05:28:50;98899.72;;;5.25;66.05
62800;BME280;48842;51.046;13.796;2022-11-21T05:31:15;98908.41;;;5.26;66.03
62800;BME280;48842;51.046;13.796;2022-11-21T05:33:41;98915.34;;;5.27;66.01
62800;BME280;48842;51.046;13.796;2022-11-21T05:36:06;98915.34;;;5.29;66.07
62800;BME280;48842;51.046;13.796;2022-11-21T05:38:31;98914.44;;;5.28;66.23
62800;BME280;48842;51.046;13.796;2022-11-21T05:40:57;98911.84;;;5.28;66.16
62800;BME280;48842;51.046;13.796;2022-11-21T05:43:22;98919.63;;;5.30;66.10
62800;BME280;48842;51.046;13.796;2022-11-21T05:46:06;98920.53;;;5.30;66.15
62800;BME280;48842;51.046;13.796;2022-11-21T05:48:31;98921.38;;;5.29;66.24
62800;BME280;48842;51.046;13.796;2022-11-21T05:50:58;98915.34;;;5.30;66.32
62800;BME280;48842;51.046;13.796;2022-11-21T05:53:23;98921.38;;;5.31;66.25
62800;BME280;48842;51.046;13.796;2022-11-21T05:55:49;98925.72;;;5.30;66.36
62800;BME280;48842;51.046;13.796;2022-11-21T05:58:14;98921.38;;;5.29;66.27
62800;BME280;48842;51.046;13.796;2022-11-21T06:00:39;98924.84;;;5.30;66.28
62800;BME280;48842;51.046;13.796;2022-11-21T06:03:05;98920.53;;;5.30;66.42
62800;BME280;48842;51.046;13.796;2022-11-21T06:05:51;98939.56;;;5.31;66.38
62800;BME280;48842;51.046;13.796;2022-11-21T06:08:16;98942.16;;;5.31;66.44
62800;BME280;48842;51.046;13.796;2022-11-21T06:10:41;98943.00;;;5.31;66.63
62800;BME280;48842;51.046;13.796;2022-11-21T06:13:06;98957.72;;;5.29;66.68
62800;BME280;48842;51.046;13.796;2022-11-21T06:15:47;98962.06;;;5.30;66.69
62800;BME280;48842;51.046;13.796;2022-11-21T06:18:12;98959.47;;;5.29;66.88
62800;BME280;48842;51.046;13.796;2022-11-21T06:20:38;98972.44;;;5.30;66.94
62800;BME280;48842;51.046;13.796;2022-11-21T06:23:03;98970.69;;;5.29;66.93
62800;BME280;48842;51.046;13.796;2022-11-21T06:25:28;98973.31;;;5.31;66.96
62800;BME280;48842;51.046;13.796;2022-11-21T06:27:53;98966.38;;;5.31;67.16
62800;BME280;48842;51.046;13.796;2022-11-21T06:30:19;98975.91;;;5.32;66.96
62800;BME280;48842;51.046;13.796;2022-11-21T06:32:45;98984.53;;;5.31;67.10
62800;BME280;48842;51.046;13.796;2022-11-21T06:35:10;98996.66;;;5.32;67.03
62800;BME280;48842;51.046;13.796;2022-11-21T06:37:35;98999.25;;;5.32;67.21
62800;BME280;48842;51.046;13.796;2022-11-21T06:40:00;99001.84;;;5.32;67.15
62800;BME280;48842;51.046;13.796;2022-11-21T06:42:26;99007.91;;;5.33;67.38
62800;BME280;48842;51.046;13.796;2022-11-21T06:44:51;99009.66;;;5.32;67.29
62800;BME280;48842;51.046;13.796;2022-11-21T06:47:17;99013.09;;;5.30;67.32
62800;BME280;48842;51.046;13.796;2022-11-21T06:49:42;99022.63;;;5.29;67.38
62800;BME280;48842;51.046;13.796;2022-11-21T06:52:07;99032.16;;;5.30;67.35
62800;BME280;48842;51.046;13.796;2022-11-21T06:54:33;99038.19;;;5.29;67.42
62800;BME280;48842;51.046;13.796;2022-11-21T06:56:58;99042.53;;;5.30;67.50
62800;BME280;48842;51.046;13.796;2022-11-21T06:59:23;99045.97;;;5.31;67.57
62800;BME280;48842;51.046;13.796;2022-11-21T07:01:48;99049.44;;;5.31;67.75
62800;BME280;48842;51.046;13.796;2022-11-21T07:04:14;99061.56;;;5.32;67.75
62800;BME280;48842;51.046;13.796;2022-11-21T07:06:39;99057.22;;;5.28;67.84
62800;BME280;48842;51.046;13.796;2022-11-21T07:09:04;99072.78;;;5.27;68.02
62800;BME280;48842;51.046;13.796;2022-11-21T07:11:29;99071.03;;;5.24;68.10
62800;BME280;48842;51.046;13.796;2022-11-21T07:13:55;99074.44;;;5.14;68.56
62800;BME280;48842;51.046;13.796;2022-11-21T07:16:20;99083.03;;;5.00;69.34
62800;BME280;48842;51.046;13.796;2022-11-21T07:18:45;99090.78;;;4.97;68.62
62800;BME280;48842;51.046;13.796;2022-11-21T07:21:11;99092.53;;;4.97;68.90
62800;BME280;48842;51.046;13.796;2022-11-21T07:23:36;99092.53;;;4.94;69.04
62800;BME280;48842;51.046;13.796;2022-11-21T07:26:06;99116.69;;;4.89;68.93
62800;BME280;48842;51.046;13.796;2022-11-21T07:28:32;99116.69;;;4.85;68.88
62800;BME280;48842;51.046;13.796;2022-11-21T07:30:59;99120.97;;;4.83;69.09
62800;BME280;48842;51.046;13.796;2022-11-21T07:33:25;99125.28;;;4.79;68.92
62800;BME280;48842;51.046;13.796;2022-11-21T07:35:51;99136.50;;;4.78;68.82
62800;BME280;48842;51.046;13.796;2022-11-21T07:38:16;99126.00;;;4.64;69.34
62800;BME280;48842;51.046;13.796;2022-11-21T07:40:41;99138.94;;;4.58;69.40
62800;BME280;48842;51.046;13.796;2022-11-21T07:43:06;99146.66;;;4.52;69.71
62800;BME280;48842;51.046;13.796;2022-11-21T07:45:32;99154.44;;;4.53;68.90
62800;BME280;48842;51.046;13.796;2022-11-21T07:48:02;99162.22;;;4.52;68.82
62800;BME280;48842;51.046;13.796;2022-11-21T07:50:28;99171.56;;;4.37;69.41
62800;BME280;48842;51.046;13.796;2022-11-21T07:53:03;99167.13;;;4.23;69.90
62800;BME280;48842;51.046;13.796;2022-11-21T07:55:29;99174.88;;;4.21;69.73
62800;BME280;48842;51.046;13.796;2022-11-21T07:58:05;99177.41;;;4.15;69.52
62800;BME280;48842;51.046;13.796;2022-11-21T08:00:33;99184.22;;;4.07;69.55
62800;BME280;48842;51.046;13.796;2022-11-21T08:02:59;99195.38;;;4.01;69.20
62800;BME280;48842;51.046;13.796;2022-11-21T08:05:24;99195.28;;;3.92;68.84
62800;BME280;48842;51.046;13.796;2022-11-21T08:07:50;99201.31;;;3.92;68.90
62800;BME280;48842;51.046;13.796;2022-11-21T08:10:16;99206.44;;;3.86;68.69
62800;BME280;48842;51.046;13.796;2022-11-21T08:12:43;99210.50;;;3.67;68.53
62800;BME280;48842;51.046;13.796;2022-11-21T08:15:09;99207.75;;;3.56;68.62
62800;BME280;48842;51.046;13.796;2022-11-21T08:17:34;99217.22;;;3.54;68.77
62800;BME280;48842;51.046;13.796;2022-11-21T08:19:59;99220.66;;;3.53;68.64
62800;BME280;48842;51.046;13.796;2022-11-21T08:22:26;99236.03;;;3.41;68.47
62800;BME280;48842;51.046;13.796;2022-11-21T08:24:51;99230.78;;;3.36;68.48
62800;BME280;48842;51.046;13.796;2022-11-21T08:27:18;99230.00;;;3.42;68.47
62800;BME280;48842;51.046;13.796;2022-11-21T08:29:45;99240.38;;;3.42;68.43
62800;BME280;48842;51.046;13.796;2022-11-21T08:32:10;99247.19;;;3.38;67.93
62800;BME280;48842;51.046;13.796;2022-11-21T08:34:36;99248.88;;;3.35;67.93
62800;BME280;48842;51.046;13.796;2022-11-21T08:37:01;99254.00;;;3.31;68.11
62800;BME280;48842;51.046;13.796;2022-11-21T08:39:27;99268.50;;;3.22;67.77
62800;BME280;48842;51.046;13.796;2022-11-21T08:41:55;99275.34;;;3.18;67.56
62800;BME280;48842;51.046;13.796;2022-11-21T08:44:30;99280.34;;;3.07;67.70
62800;BME280;48842;51.046;13.796;2022-11-21T08:46:56;99280.31;;;3.06;67.81
62800;BME280;48842;51.046;13.796;2022-11-21T08:49:21;99294.06;;;3.03;67.62
62800;BME280;48842;51.046;13.796;2022-11-21T08:51:47;99287.97;;;3.00;67.73
62800;BME280;48842;51.046;13.796;2022-11-21T08:54:19;99306.00;;;2.95;68.11
62800;BME280;48842;51.046;13.796;2022-11-21T08:56:45;99311.03;;;2.87;68.44
62800;BME280;48842;51.046;13.796;2022-11-21T08:59:11;99311.88;;;2.86;68.38
62800;BME280;48842;51.046;13.796;2022-11-21T09:01:36;99321.13;;;2.73;68.37
62800;BME280;48842;51.046;13.796;2022-11-21T09:04:03;99320.19;;;2.70;68.65
62800;BME280;48842;51.046;13.796;2022-11-21T09:06:28;99325.31;;;2.67;68.59
62800;BME280;48842;51.046;13.796;2022-11-21T09:08:54;99333.88;;;2.66;68.36
62800;BME280;48842;51.046;13.796;2022-11-21T09:11:19;99325.31;;;2.67;68.49
62800;BME280;48842;51.046;13.796;2022-11-21T09:13:44;99327.94;;;2.70;68.44
62800;BME280;48842;51.046;13.796;2022-11-21T09:16:29;99328.66;;;2.62;68.52
62800;BME280;48842;51.046;13.796;2022-11-21T09:19:13;99325.31;;;2.67;68.20
62800;BME280;48842;51.046;13.796;2022-11-21T09:21:39;99332.28;;;2.71;68.34
62800;BME280;48842;51.046;13.796;2022-11-21T09:24:04;99333.97;;;2.69;68.08
62800;BME280;48842;51.046;13.796;2022-11-21T09:26:29;99343.44;;;2.70;68.07
62800;BME280;48842;51.046;13.796;2022-11-21T09:28:55;99347.69;;;2.65;68.33
62800;BME280;48842;51.046;13.796;2022-11-21T09:31:21;99355.34;;;2.60;68.38
62800;BME280;48842;51.046;13.796;2022-11-21T09:33:47;99346.66;;;2.58;68.45
62800;BME280;48842;51.046;13.796;2022-11-21T09:36:12;99351.88;;;2.59;68.52
62800;BME280;48842;51.046;13.796;2022-11-21T09:38:37;99357.09;;;2.62;68.38
62800;BME280;48842;51.046;13.796;2022-11-21T09:41:17;99362.41;;;2.69;68.61
62800;BME280;48842;51.046;13.796;2022-11-21T09:44:28;99370.16;;;2.69;68.38
62800;BME280;48842;51.046;13.796;2022-11-21T09:47:04;99376.13;;;2.65;69.05
62800;BME280;48842;51.046;13.796;2022-11-21T09:49:40;99363.31;;;2.71;68.97
62800;BME280;48842;51.046;13.796;2022-11-21T09:52:10;99364.91;;;2.66;68.87
62800;BME280;48842;51.046;13.796;2022-11-21T09:54:46;99360.72;;;2.71;68.98
62800;BME280;48842;51.046;13.796;2022-11-21T09:57:17;99362.41;;;2.69;68.94
62800;BME280;48842;51.046;13.796;2022-11-21T09:59:45;99364.09;;;2.68;68.78
62800;BME280;48842;51.046;13.796;2022-11-21T10:02:17;99365.94;;;2.74;68.79
62800;BME280;48842;51.046;13.796;2022-11-21T10:04:44;99366.81;;;2.76;68.76
62800;BME280;48842;51.046;13.796;2022-11-21T10:07:16;99375.44;;;2.75;68.65
62800;BME280;48842;51.046;13.796;2022-11-21T10:27:01;99392.09;;;2.88;68.60
62800;BME280;48842;51.046;13.796;2022-11-21T10:29:33;99394.69;;;2.89;68.55
62800;BME280;48842;51.046;13.796;2022-11-21T10:32:17;99390.31;;;2.87;68.88
62800;BME280;48842;51.046;13.796;2022-11-21T10:34:44;99394.69;;;2.89;68.57
62800;BME280;48842;51.046;13.796;2022-11-21T10:43:01;99400.94;;;3.02;68.66
62800;BME280;48842;51.046;13.796;2022-11-21T10:45:51;99394.13;;;3.06;68.08
62800;BME280;48842;51.046;13.796;2022-11-21T10:48:17;99408.81;;;3.07;68.01
62800;BME280;48842;51.046;13.796;2022-11-21T10:50:57;99407.97;;;3.08;67.99
62800;BME280;48842;51.046;13.796;2022-11-21T10:53:27;99401.13;;;3.10;67.76
62800;BME280;48842;51.046;13.796;2022-11-21T10:56:14;99404.47;;;3.06;67.65
62800;BME280;48842;51.046;13.796;2022-11-21T10:58:43;99408.81;;;3.07;67.65
62800;BME280;48842;51.046;13.796;2022-11-21T11:01:23;99404.53;;;3.09;67.96
62800;BME280;48842;51.046;13.796;2022-11-21T11:06:37;99393.53;;;3.21;67.79
62800;BME280;48842;51.046;13.796;2022-11-21T11:09:04;99400.53;;;3.25;67.66
62800;BME280;48842;51.046;13.796;2022-11-21T11:11:31;99397.13;;;3.27;67.51
62800;BME280;48842;51.046;13.796;2022-11-21T11:14:02;99399.72;;;3.29;67.76
62800;BME280;48842;51.046;13.796;2022-11-21T11:16:30;99399.00;;;3.36;67.67
62800;BME280;48842;51.046;13.796;2022-11-21T11:21:40;99404.31;;;3.45;67.48
62800;BME280;48842;51.046;13.796;2022-11-21T11:27:17;99399.28;;;3.53;66.99
62800;BME280;48842;51.046;13.796;2022-11-21T11:29:30;99401.88;;;3.55;66.97
62800;BME280;48842;51.046;13.796;2022-11-21T11:32:13;99400.94;;;3.48;66.76
62800;BME280;48842;51.046;13.796;2022-11-21T11:34:51;99403.53;;;3.49;66.84
62800;BME280;48842;51.046;13.796;2022-11-21T11:37:33;99393.22;;;3.51;66.84
62800;BME280;48842;51.046;13.796;2022-11-21T11:40:29;99387.25;;;3.55;66.61
62800;BME280;48842;51.046;13.796;2022-11-21T11:46:13;99375.41;;;3.70;66.30
62800;BME280;48842;51.046;13.796;2022-11-21T11:49:04;99393.69;;;3.80;66.82
62800;BME280;48842;51.046;13.796;2022-11-21T11:51:39;99384.22;;;3.84;66.41
62800;BME280;48842;51.046;13.796;2022-11-21T11:54:12;99384.22;;;3.84;66.17
62800;BME280;48842;51.046;13.796;2022-11-21T11:56:41;99382.59;;;3.89;66.29
62800;BME280;48842;51.046;13.796;2022-11-21T11:59:21;99375.69;;;3.91;66.33
62800;BME280;48842;51.046;13.796;2022-11-21T12:02:12;99371.53;;;3.99;66.18
62800;BME280;48842;51.046;13.796;2022-11-21T12:05:02;99375.16;;;4.12;66.40
62800;BME280;48842;51.046;13.796;2022-11-21T12:07:37;99380.41;;;4.17;65.85
62800;BME280;48842;51.046;13.796;2022-11-21T12:10:11;99376.06;;;4.16;65.65
62800;BME280;48842;51.046;13.796;2022-11-21T12:12:52;99372.59;;;4.14;65.53
62800;BME280;48842;51.046;13.796;2022-11-21T12:15:20;99385.53;;;4.14;65.33
62800;BME280;48842;51.046;13.796;2022-11-21T12:24:07;99378.78;;;4.24;65.36
62800;BME280;48842;51.046;13.796;2022-11-21T12:26:44;99378.00;;;4.29;65.39
62800;BME280;48842;51.046;13.796;2022-11-21T12:40:18;99379.75;;;4.33;64.72
62800;BME280;48842;51.046;13.796;2022-11-21T12:45:45;99384.88;;;4.27;64.40
62800;BME280;48842;51.046;13.796;2022-11-21T12:51:22;99377.94;;;4.26;64.54
62800;BME280;48842;51.046;13.796;2022-11-21T12:54:17;99378.88;;;4.31;64.55
62800;BME280;48842;51.046;13.796;2022-11-21T12:59:30;99370.31;;;4.37;64.50
62800;BME280;48842;51.046;13.796;2022-11-21T13:02:12;99378.13;;;4.40;64.35
62800;BME280;48842;51.046;13.796;2022-11-21T13:04:44;99371.19;;;4.37;64.29
62800;BME280;48842;51.046;13.796;2022-11-21T13:07:12;99370.28;;;4.34;64.26
62800;BME280;48842;51.046;13.796;2022-11-21T13:09:44;99367.72;;;4.37;64.50
62800;BME280;48842;51.046;13.796;2022-11-21T13:12:26;99357.41;;;4.42;64.38
62800;BME280;48842;51.046;13.796;2022-11-21T13:15:12;99364.38;;;4.46;64.28
62800;BME280;48842;51.046;13.796;2022-11-21T13:17:46;99360.09;;;4.49;64.15
62800;BME280;48842;51.046;13.796;2022-11-21T13:20:48;99371.34;;;4.48;63.74
62800;BME280;48842;51.046;13.796;2022-11-21T13:23:36;99370.44;;;4.48;63.98
62800;BME280;48842;51.046;13.796;2022-11-21T13:28:50;99361.84;;;4.50;64.17
62800;BME280;48842;51.046;13.796;2022-11-21T13:31:32;99363.59;;;4.53;64.17
62800;BME280;48842;51.046;13.796;2022-11-21T13:33:58;99350.69;;;4.56;64.08
62800;BME280;48842;51.046;13.796;2022-11-21T13:46:57;99331.75;;;4.63;63.78
62800;BME280;48842;51.046;13.796;2022-11-21T13:49:52;99335.22;;;4.65;63.79
62800;BME280;48842;51.046;13.796;2022-11-21T14:06:38;99329.19;;;4.68;63.57
62800;BME280;48842;51.046;13.796;2022-11-21T14:11:46;99323.09;;;4.64;63.74
62800;BME280;48842;51.046;13.796;2022-11-21T14:17:22;99324.88;;;4.68;63.77
62800;BME280;48842;51.046;13.796;2022-11-21T14:19:51;99325.78;;;4.72;63.90
62800;BME280;48842;51.046;13.796;2022-11-21T14:24:55;99318.91;;;4.77;63.98
62800;BME280;48842;51.046;13.796;2022-11-21T14:27:28;99331.06;;;4.80;63.97
62800;BME280;48842;51.046;13.796;2022-11-21T14:29:55;99320.69;;;4.80;64.01
62800;BME280;48842;51.046;13.796;2022-11-21T14:32:30;99319.84;;;4.81;64.04
62800;BME280;48842;51.046;13.796;2022-11-21T14:35:28;99323.31;;;4.83;63.99
62800;BME280;48842;51.046;13.796;2022-11-21T14:37:53;99324.19;;;4.85;63.95
62800;BME280;48842;51.046;13.796;2022-11-21T14:40:21;99325.91;;;4.86;63.90
62800;BME280;48842;51.046;13.796;2022-11-21T14:42:47;99319.03;;;4.86;63.91
62800;BME280;48842;51.046;13.796;2022-11-21T14:45:21;99322.47;;;4.87;63.87
62800;BME280;48842;51.046;13.796;2022-11-21T14:47:51;99314.72;;;4.88;63.95